sensor_id;sensor_type;location;lat;lon;timestamp;P1;durP1;ratioP1;P2;durP2;ratioP2
56051;SDS011;41919;42.648;23.384;2023-02-02T00:01:23;2.17;;;1.50;;
56051;SDS011;41919;42.648;23.384;2023-02-02T00:03:49;1.85;;;1.35;;
56051;SDS011;41919;42.648;23.384;2023-02-02T00:06:16;3.53;;;1.75;;
56051;SDS011;41919;42.648;23.384;2023-02-02T00:08:42;2.03;;;1.42;;
56051;SDS011;41919;42.648;23.384;2023-02-02T00:11:08;2.63;;;1.17;;
56051;SDS011;41919;42.648;23.384;2023-02-02T00:13:33;1.98;;;1.40;;
56051;SDS011;41919;42.648;23.384;2023-02-02T00:16:16;2.10;;;1.20;;
56051;SDS011;41919;42.648;23.384;2023-02-02T00:19:03;3.47;;;1.40;;
56051;SDS011;41919;42.648;23.384;2023-02-02T00:21:30;13.38;;;1.60;;
56051;SDS011;41919;42.648;23.384;2023-02-02T00:23:56;3.00;;;1.73;;
56051;SDS011;41919;42.648;23.384;2023-02-02T00:26:22;2.65;;;1.30;;
56051;SDS011;41919;42.648;23.384;2023-02-02T00:28:47;3.05;;;1.50;;
56051;SDS011;41919;42.648;23.384;2023-02-02T00:31:13;3.85;;;1.33;;
56051;SDS011;41919;42.648;23.384;2023-02-02T00:33:38;2.65;;;1.27;;
56051;SDS011;41919;42.648;23.384;2023-02-02T00:36:04;3.45;;;1.58;;
56051;SDS011;41919;42.648;23.384;2023-02-02T00:38:30;2.22;;;1.40;;
56051;SDS011;41919;42.648;23.384;2023-02-02T00:40:56;2.70;;;1.70;;
56051;SDS011;41919;42.648;23.384;2023-02-02T00:43:21;2.55;;;1.27;;
56051;SDS011;41919;42.648;23.384;2023-02-02T00:45:47;1.38;;;1.25;;
56051;SDS011;41919;42.648;23.384;2023-02-02T00:48:13;4.15;;;1.60;;
56051;SDS011;41919;42.648;23.384;2023-02-02T00:50:39;5.70;;;1.70;;
56051;SDS011;41919;42.648;23.384;2023-02-02T00:53:04;2.92;;;1.30;;
56051;SDS011;41919;42.648;23.384;2023-02-02T00:55:30;2.80;;;1.15;;
56051;SDS011;41919;42.648;23.384;2023-02-02T00:57:55;8.48;;;1.38;;
56051;SDS011;41919;42.648;23.384;2023-02-02T01:00:22;2.97;;;1.80;;
56051;SDS011;41919;42.648;23.384;2023-02-02T01:02:49;3.58;;;1.33;;
56051;SDS011;41919;42.648;23.384;2023-02-02T01:05:15;3.22;;;1.40;;
56051;SDS011;41919;42.648;23.384;2023-02-02T01:07:41;3.35;;;1.58;;
56051;SDS011;41919;42.648;23.384;2023-02-02T01:10:10;3.72;;;1.30;;
56051;SDS011;41919;42.648;23.384;2023-02-02T01:12:38;3.10;;;1.40;;
56051;SDS011;41919;42.648;23.384;2023-02-02T01:15:04;1.90;;;1.30;;
56051;SDS011;41919;42.648;23.384;2023-02-02T01:17:30;3.03;;;1.30;;
56051;SDS011;41919;42.648;23.384;2023-02-02T01:19:56;4.38;;;1.40;;
56051;SDS011;41919;42.648;23.384;2023-02-02T01:22:21;2.83;;;1.38;;
56051;SDS011;41919;42.648;23.384;2023-02-02T01:24:47;1.85;;;1.33;;
56051;SDS011;41919;42.648;23.384;2023-02-02T01:27:12;3.53;;;1.67;;
56051;SDS011;41919;42.648;23.384;2023-02-02T01:29:38;2.53;;;1.73;;
56051;SDS011;41919;42.648;23.384;2023-02-02T01:32:03;2.95;;;1.30;;
56051;SDS011;41919;42.648;23.384;2023-02-02T01:34:29;2.92;;;1.48;;
56051;SDS011;41919;42.648;23.384;2023-02-02T01:36:54;4.47;;;1.70;;
56051;SDS011;41919;42.648;23.384;2023-02-02T01:39:20;2.13;;;1.40;;
56051;SDS011;41919;42.648;23.384;2023-02-02T01:41:45;3.45;;;1.50;;
56051;SDS011;41919;42.648;23.384;2023-02-02T01:47:13;3.92;;;2.45;;
56051;SDS011;41919;42.648;23.384;2023-02-02T01:49:39;2.13;;;1.63;;
56051;SDS011;41919;42.648;23.384;2023-02-02T01:52:05;2.63;;;1.70;;
56051;SDS011;41919;42.648;23.384;2023-02-02T01:54:35;6.03;;;2.33;;
56051;SDS011;41919;42.648;23.384;2023-02-02T01:57:11;5.63;;;1.83;;
56051;SDS011;41919;42.648;23.384;2023-02-02T02:02:03;6.13;;;2.80;;
56051;SDS011;41919;42.648;23.384;2023-02-02T02:04:29;5.40;;;2.72;;
56051;SDS011;41919;42.648;23.384;2023-02-02T02:06:56;5.93;;;2.80;;
56051;SDS011;41919;42.648;23.384;2023-02-02T02:09:22;6.72;;;2.50;;
56051;SDS011;41919;42.648;23.384;2023-02-02T02:11:48;4.82;;;2.50;;
56051;SDS011;41919;42.648;23.384;2023-02-02T02:14:13;3.60;;;2.20;;
56051;SDS011;41919;42.648;23.384;2023-02-02T02:26:25;5.35;;;2.22;;
56051;SDS011;41919;42.648;23.384;2023-02-02T02:29:26;3.03;;;2.13;;
56051;SDS011;41919;42.648;23.384;2023-02-02T02:37:38;4.35;;;1.92;;
56051;SDS011;41919;42.648;23.384;2023-02-02T02:40:25;4.72;;;2.20;;
56051;SDS011;41919;42.648;23.384;2023-02-02T02:43:09;5.65;;;2.47;;
56051;SDS011;41919;42.648;23.384;2023-02-02T02:45:39;5.68;;;2.40;;
56051;SDS011;41919;42.648;23.384;2023-02-02T02:48:08;7.68;;;2.33;;
56051;SDS011;41919;42.648;23.384;2023-02-02T02:50:35;2.90;;;2.03;;
56051;SDS011;41919;42.648;23.384;2023-02-02T02:53:03;4.75;;;1.98;;
56051;SDS011;41919;42.648;23.384;2023-02-02T02:55:35;4.88;;;2.38;;
56051;SDS011;41919;42.648;23.384;2023-02-02T02:58:15;4.57;;;2.13;;
56051;SDS011;41919;42.648;23.384;2023-02-02T03:03:51;4.35;;;2.40;;
56051;SDS011;41919;42.648;23.384;2023-02-02T03:08:59;3.28;;;2.33;;
56051;SDS011;41919;42.648;23.384;2023-02-02T03:11:29;3.33;;;1.85;;
56051;SDS011;41919;42.648;23.384;2023-02-02T03:13:55;4.28;;;2.30;;
56051;SDS011;41919;42.648;23.384;2023-02-02T03:16:21;3.85;;;2.33;;
56051;SDS011;41919;42.648;23.384;2023-02-02T03:18:46;3.67;;;1.88;;
56051;SDS011;41919;42.648;23.384;2023-02-02T03:21:12;4.90;;;2.60;;
56051;SDS011;41919;42.648;23.384;2023-02-02T03:23:37;4.03;;;2.13;;
56051;SDS011;41919;42.648;23.384;2023-02-02T03:26:03;3.78;;;2.00;;
56051;SDS011;41919;42.648;23.384;2023-02-02T03:28:29;3.17;;;1.95;;
56051;SDS011;41919;42.648;23.384;2023-02-02T03:30:56;6.00;;;2.33;;
56051;SDS011;41919;42.648;23.384;2023-02-02T03:33:24;2.85;;;2.03;;
56051;SDS011;41919;42.648;23.384;2023-02-02T03:35:50;4.80;;;2.13;;
56051;SDS011;41919;42.648;23.384;2023-02-02T03:38:15;4.50;;;1.98;;
56051;SDS011;41919;42.648;23.384;2023-02-02T03:40:41;3.67;;;1.90;;
56051;SDS011;41919;42.648;23.384;2023-02-02T03:43:06;5.65;;;1.95;;
56051;SDS011;41919;42.648;23.384;2023-02-02T03:45:32;3.17;;;1.92;;
56051;SDS011;41919;42.648;23.384;2023-02-02T03:47:59;3.05;;;2.00;;
56051;SDS011;41919;42.648;23.384;2023-02-02T03:50:27;3.42;;;2.10;;
56051;SDS011;41919;42.648;23.384;2023-02-02T03:52:52;4.55;;;2.10;;
56051;SDS011;41919;42.648;23.384;2023-02-02T03:55:19;4.38;;;1.85;;
56051;SDS011;41919;42.648;23.384;2023-02-02T03:57:44;4.38;;;2.35;;
56051;SDS011;41919;42.648;23.384;2023-02-02T04:00:10;4.05;;;2.28;;
56051;SDS011;41919;42.648;23.384;2023-02-02T04:02:35;3.67;;;2.17;;
56051;SDS011;41919;42.648;23.384;2023-02-02T04:05:01;5.30;;;2.53;;
56051;SDS011;41919;42.648;23.384;2023-02-02T04:07:26;4.40;;;2.95;;
56051;SDS011;41919;42.648;23.384;2023-02-02T04:09:51;6.95;;;3.20;;
56051;SDS011;41919;42.648;23.384;2023-02-02T04:12:17;8.55;;;3.38;;
56051;SDS011;41919;42.648;23.384;2023-02-02T04:14:42;6.43;;;3.55;;
56051;SDS011;41919;42.648;23.384;2023-02-02T04:17:08;8.40;;;3.20;;
56051;SDS011;41919;42.648;23.384;2023-02-02T04:19:33;6.15;;;2.63;;
56051;SDS011;41919;42.648;23.384;2023-02-02T04:21:58;7.32;;;3.40;;
56051;SDS011;41919;42.648;23.384;2023-02-02T04:24:24;4.82;;;2.85;;
56051;SDS011;41919;42.648;23.384;2023-02-02T04:26:49;3.92;;;2.70;;
56051;SDS011;41919;42.648;23.384;2023-02-02T04:29:15;5.30;;;2.72;;
56051;SDS011;41919;42.648;23.384;2023-02-02T04:31:40;4.65;;;2.78;;
56051;SDS011;41919;42.648;23.384;2023-02-02T04:34:05;4.60;;;2.42;;
56051;SDS011;41919;42.648;23.384;2023-02-02T04:36:31;5.47;;;3.05;;
56051;SDS011;41919;42.648;23.384;2023-02-02T04:38:56;4.63;;;2.80;;
56051;SDS011;41919;42.648;23.384;2023-02-02T04:41:22;5.75;;;2.42;;
56051;SDS011;41919;42.648;23.384;2023-02-02T04:43:47;5.45;;;2.83;;
56051;SDS011;41919;42.648;23.384;2023-02-02T04:46:13;7.00;;;2.60;;
56051;SDS011;41919;42.648;23.384;2023-02-02T04:48:39;5.47;;;2.47;;
56051;SDS011;41919;42.648;23.384;2023-02-02T04:51:06;5.55;;;2.78;;
56051;SDS011;41919;42.648;23.384;2023-02-02T04:53:33;4.65;;;2.95;;
56051;SDS011;41919;42.648;23.384;2023-02-02T04:56:03;6.00;;;2.78;;
56051;SDS011;41919;42.648;23.384;2023-02-02T04:58:30;5.25;;;3.10;;
56051;SDS011;41919;42.648;23.384;2023-02-02T05:00:56;4.80;;;3.00;;
56051;SDS011;41919;42.648;23.384;2023-02-02T05:03:21;8.13;;;3.00;;
56051;SDS011;41919;42.648;23.384;2023-02-02T05:05:46;5.43;;;2.30;;
56051;SDS011;41919;42.648;23.384;2023-02-02T05:08:12;5.97;;;3.10;;
56051;SDS011;41919;42.648;23.384;2023-02-02T05:10:40;6.15;;;3.78;;
56051;SDS011;41919;42.648;23.384;2023-02-02T05:13:06;5.63;;;3.15;;
56051;SDS011;41919;42.648;23.384;2023-02-02T05:15:33;6.78;;;2.80;;
56051;SDS011;41919;42.648;23.384;2023-02-02T05:17:58;4.60;;;2.53;;
56051;SDS011;41919;42.648;23.384;2023-02-02T05:20:24;4.65;;;3.03;;
56051;SDS011;41919;42.648;23.384;2023-02-02T05:22:49;6.53;;;2.78;;
56051;SDS011;41919;42.648;23.384;2023-02-02T05:25:15;5.85;;;2.72;;
56051;SDS011;41919;42.648;23.384;2023-02-02T05:27:44;5.72;;;2.80;;
56051;SDS011;41919;42.648;23.384;2023-02-02T05:30:11;4.88;;;3.20;;
56051;SDS011;41919;42.648;23.384;2023-02-02T05:32:37;13.15;;;4.43;;
56051;SDS011;41919;42.648;23.384;2023-02-02T05:35:03;8.18;;;4.20;;
56051;SDS011;41919;42.648;23.384;2023-02-02T05:37:29;8.00;;;4.30;;
56051;SDS011;41919;42.648;23.384;2023-02-02T05:39:54;13.95;;;6.00;;
56051;SDS011;41919;42.648;23.384;2023-02-02T05:42:20;9.55;;;5.57;;
56051;SDS011;41919;42.648;23.384;2023-02-02T05:44:45;12.20;;;6.50;;
56051;SDS011;41919;42.648;23.384;2023-02-02T05:47:10;13.60;;;7.07;;
56051;SDS011;41919;42.648;23.384;2023-02-02T05:49:36;17.20;;;8.05;;
56051;SDS011;41919;42.648;23.384;2023-02-02T05:52:01;14.57;;;7.65;;
56051;SDS011;41919;42.648;23.384;2023-02-02T05:54:27;16.45;;;7.55;;
56051;SDS011;41919;42.648;23.384;2023-02-02T05:56:53;18.30;;;8.20;;
56051;SDS011;41919;42.648;23.384;2023-02-02T05:59:20;21.75;;;10.85;;
56051;SDS011;41919;42.648;23.384;2023-02-02T06:01:45;18.27;;;10.10;;
56051;SDS011;41919;42.648;23.384;2023-02-02T06:04:11;14.88;;;8.00;;
56051;SDS011;41919;42.648;23.384;2023-02-02T06:06:37;13.35;;;7.28;;
56051;SDS011;41919;42.648;23.384;2023-02-02T06:09:04;16.60;;;8.15;;
56051;SDS011;41919;42.648;23.384;2023-02-02T06:11:30;16.27;;;8.07;;
56051;SDS011;41919;42.648;23.384;2023-02-02T06:13:56;12.45;;;6.03;;
56051;SDS011;41919;42.648;23.384;2023-02-02T06:16:21;13.02;;;6.35;;
56051;SDS011;41919;42.648;23.384;2023-02-02T06:18:47;11.98;;;5.95;;
56051;SDS011;41919;42.648;23.384;2023-02-02T06:21:13;10.65;;;5.35;;
56051;SDS011;41919;42.648;23.384;2023-02-02T06:23:38;12.30;;;6.55;;
56051;SDS011;41919;42.648;23.384;2023-02-02T06:26:10;11.13;;;6.13;;
56051;SDS011;41919;42.648;23.384;2023-02-02T06:28:36;21.27;;;7.68;;
56051;SDS011;41919;42.648;23.384;2023-02-02T06:31:03;16.33;;;7.85;;
56051;SDS011;41919;42.648;23.384;2023-02-02T06:33:29;12.05;;;6.63;;
56051;SDS011;41919;42.648;23.384;2023-02-02T06:35:57;11.57;;;6.50;;
56051;SDS011;41919;42.648;23.384;2023-02-02T06:38:25;12.27;;;6.75;;
56051;SDS011;41919;42.648;23.384;2023-02-02T06:40:50;15.45;;;7.25;;
56051;SDS011;41919;42.648;23.384;2023-02-02T06:43:16;13.95;;;7.13;;
56051;SDS011;41919;42.648;23.384;2023-02-02T06:45:41;16.33;;;7.68;;
56051;SDS011;41919;42.648;23.384;2023-02-02T06:48:06;14.50;;;6.78;;
56051;SDS011;41919;42.648;23.384;2023-02-02T06:50:35;13.25;;;7.18;;
56051;SDS011;41919;42.648;23.384;2023-02-02T06:53:02;15.40;;;7.68;;
56051;SDS011;41919;42.648;23.384;2023-02-02T06:55:27;13.15;;;6.97;;
56051;SDS011;41919;42.648;23.384;2023-02-02T06:57:56;13.68;;;7.13;;
56051;SDS011;41919;42.648;23.384;2023-02-02T07:00:23;16.63;;;7.88;;
56051;SDS011;41919;42.648;23.384;2023-02-02T07:02:48;12.85;;;6.95;;
56051;SDS011;41919;42.648;23.384;2023-02-02T07:05:14;12.80;;;7.10;;
56051;SDS011;41919;42.648;23.384;2023-02-02T07:07:39;17.10;;;7.55;;
56051;SDS011;41919;42.648;23.384;2023-02-02T07:10:05;15.82;;;7.25;;
56051;SDS011;41919;42.648;23.384;2023-02-02T07:12:31;14.35;;;7.85;;
56051;SDS011;41919;42.648;23.384;2023-02-02T07:14:56;14.80;;;8.20;;
56051;SDS011;41919;42.648;23.384;2023-02-02T07:17:23;14.10;;;8.45;;
56051;SDS011;41919;42.648;23.384;2023-02-02T07:19:48;21.13;;;10.13;;
56051;SDS011;41919;42.648;23.384;2023-02-02T07:22:14;18.85;;;9.25;;
56051;SDS011;41919;42.648;23.384;2023-02-02T07:24:40;17.08;;;9.73;;
56051;SDS011;41919;42.648;23.384;2023-02-02T07:27:05;19.52;;;8.98;;
56051;SDS011;41919;42.648;23.384;2023-02-02T07:29:31;19.63;;;10.02;;
56051;SDS011;41919;42.648;23.384;2023-02-02T07:31:56;16.70;;;8.63;;
56051;SDS011;41919;42.648;23.384;2023-02-02T07:34:22;18.77;;;9.00;;
56051;SDS011;41919;42.648;23.384;2023-02-02T07:36:48;15.95;;;8.35;;
56051;SDS011;41919;42.648;23.384;2023-02-02T07:39:13;15.90;;;8.98;;
56051;SDS011;41919;42.648;23.384;2023-02-02T07:41:39;17.48;;;8.88;;
56051;SDS011;41919;42.648;23.384;2023-02-02T07:44:04;20.35;;;8.65;;
56051;SDS011;41919;42.648;23.384;2023-02-02T07:46:31;19.38;;;8.80;;
56051;SDS011;41919;42.648;23.384;2023-02-02T07:48:57;14.73;;;8.27;;
56051;SDS011;41919;42.648;23.384;2023-02-02T07:51:23;17.42;;;8.50;;
56051;SDS011;41919;42.648;23.384;2023-02-02T07:53:50;21.70;;;8.48;;
56051;SDS011;41919;42.648;23.384;2023-02-02T07:56:18;15.80;;;8.45;;
56051;SDS011;41919;42.648;23.384;2023-02-02T07:58:45;15.23;;;8.23;;
56051;SDS011;41919;42.648;23.384;2023-02-02T08:01:12;11.48;;;7.13;;
56051;SDS011;41919;42.648;23.384;2023-02-02T08:03:39;20.92;;;7.95;;
56051;SDS011;41919;42.648;23.384;2023-02-02T08:08:52;14.60;;;7.65;;
56051;SDS011;41919;42.648;23.384;2023-02-02T08:11:19;14.93;;;7.85;;
56051;SDS011;41919;42.648;23.384;2023-02-02T08:13:52;12.95;;;7.68;;
56051;SDS011;41919;42.648;23.384;2023-02-02T08:16:19;13.35;;;8.65;;
56051;SDS011;41919;42.648;23.384;2023-02-02T08:18:46;11.48;;;7.82;;
56051;SDS011;41919;42.648;23.384;2023-02-02T08:21:12;13.43;;;8.68;;
56051;SDS011;41919;42.648;23.384;2023-02-02T08:23:38;14.90;;;9.13;;
56051;SDS011;41919;42.648;23.384;2023-02-02T08:28:42;18.38;;;9.95;;
56051;SDS011;41919;42.648;23.384;2023-02-02T08:31:13;16.67;;;9.95;;
56051;SDS011;41919;42.648;23.384;2023-02-02T08:33:41;18.95;;;10.35;;
56051;SDS011;41919;42.648;23.384;2023-02-02T08:36:13;14.80;;;9.30;;
56051;SDS011;41919;42.648;23.384;2023-02-02T08:38:39;18.08;;;10.52;;
56051;SDS011;41919;42.648;23.384;2023-02-02T08:41:06;19.10;;;10.23;;
56051;SDS011;41919;42.648;23.384;2023-02-02T08:43:33;18.50;;;11.02;;
56051;SDS011;41919;42.648;23.384;2023-02-02T08:45:58;17.38;;;9.85;;
56051;SDS011;41919;42.648;23.384;2023-02-02T08:48:24;17.17;;;9.88;;
56051;SDS011;41919;42.648;23.384;2023-02-02T08:50:57;17.75;;;9.38;;
56051;SDS011;41919;42.648;23.384;2023-02-02T08:53:24;16.98;;;9.02;;
56051;SDS011;41919;42.648;23.384;2023-02-02T08:56:24;14.13;;;8.15;;
56051;SDS011;41919;42.648;23.384;2023-02-02T08:58:51;12.02;;;7.63;;
56051;SDS011;41919;42.648;23.384;2023-02-02T09:01:19;13.45;;;7.88;;
56051;SDS011;41919;42.648;23.384;2023-02-02T09:03:56;14.70;;;7.32;;
56051;SDS011;41919;42.648;23.384;2023-02-02T09:06:27;12.80;;;7.05;;
56051;SDS011;41919;42.648;23.384;2023-02-02T09:08:55;14.13;;;7.40;;
56051;SDS011;41919;42.648;23.384;2023-02-02T09:11:21;14.50;;;7.10;;
56051;SDS011;41919;42.648;23.384;2023-02-02T09:13:47;13.23;;;7.35;;
56051;SDS011;41919;42.648;23.384;2023-02-02T09:16:14;13.63;;;7.10;;
56051;SDS011;41919;42.648;23.384;2023-02-02T09:18:41;14.73;;;7.53;;
56051;SDS011;41919;42.648;23.384;2023-02-02T09:21:09;16.00;;;7.82;;
56051;SDS011;41919;42.648;23.384;2023-02-02T09:23:37;17.73;;;7.68;;
56051;SDS011;41919;42.648;23.384;2023-02-02T09:26:14;13.57;;;6.88;;
56051;SDS011;41919;42.648;23.384;2023-02-02T09:28:45;11.95;;;6.72;;
56051;SDS011;41919;42.648;23.384;2023-02-02T09:31:13;14.25;;;7.22;;
56051;SDS011;41919;42.648;23.384;2023-02-02T09:33:39;18.30;;;7.38;;
56051;SDS011;41919;42.648;23.384;2023-02-02T09:36:16;11.57;;;6.38;;
56051;SDS011;41919;42.648;23.384;2023-02-02T09:38:44;13.20;;;6.45;;
56051;SDS011;41919;42.648;23.384;2023-02-02T09:49:30;10.85;;;6.63;;
56051;SDS011;41919;42.648;23.384;2023-02-02T09:52:03;11.85;;;6.38;;
56051;SDS011;41919;42.648;23.384;2023-02-02T09:54:51;12.23;;;6.18;;
56051;SDS011;41919;42.648;23.384;2023-02-02T09:57:22;11.48;;;6.13;;
56051;SDS011;41919;42.648;23.384;2023-02-02T09:59:52;19.25;;;7.38;;
56051;SDS011;41919;42.648;23.384;2023-02-02T10:02:30;14.45;;;5.75;;
56051;SDS011;41919;42.648;23.384;2023-02-02T10:05:19;18.00;;;7.47;;
56051;SDS011;41919;42.648;23.384;2023-02-02T10:07:52;12.45;;;6.18;;
56051;SDS011;41919;42.648;23.384;2023-02-02T10:10:25;14.77;;;6.60;;
56051;SDS011;41919;42.648;23.384;2023-02-02T10:12:58;12.02;;;6.30;;
56051;SDS011;41919;42.648;23.384;2023-02-02T10:23:41;9.38;;;5.97;;
56051;SDS011;41919;42.648;23.384;2023-02-02T10:26:13;12.10;;;5.80;;
56051;SDS011;41919;42.648;23.384;2023-02-02T10:34:12;11.50;;;5.57;;
56051;SDS011;41919;42.648;23.384;2023-02-02T10:36:42;8.32;;;5.22;;
56051;SDS011;41919;42.648;23.384;2023-02-02T10:41:48;8.15;;;4.07;;
56051;SDS011;41919;42.648;23.384;2023-02-02T10:47:31;11.20;;;3.95;;
56051;SDS011;41919;42.648;23.384;2023-02-02T10:50:13;4.70;;;3.53;;
56051;SDS011;41919;42.648;23.384;2023-02-02T10:52:46;3.78;;;2.42;;
56051;SDS011;41919;42.648;23.384;2023-02-02T10:55:18;3.45;;;1.85;;
56051;SDS011;41919;42.648;23.384;2023-02-02T10:58:05;2.38;;;1.60;;
56051;SDS011;41919;42.648;23.384;2023-02-02T11:03:19;4.40;;;1.40;;
56051;SDS011;41919;42.648;23.384;2023-02-02T11:05:47;1.85;;;1.50;;
56051;SDS011;41919;42.648;23.384;2023-02-02T11:08:32;2.78;;;1.65;;
56051;SDS011;41919;42.648;23.384;2023-02-02T11:11:10;6.60;;;2.28;;
56051;SDS011;41919;42.648;23.384;2023-02-02T11:13:42;1.92;;;1.65;;
56051;SDS011;41919;42.648;23.384;2023-02-02T11:18:38;2.63;;;1.63;;
56051;SDS011;41919;42.648;23.384;2023-02-02T11:21:14;4.93;;;1.90;;
56051;SDS011;41919;42.648;23.384;2023-02-02T11:24:05;2.47;;;1.60;;
56051;SDS011;41919;42.648;23.384;2023-02-02T11:26:49;3.67;;;1.65;;
56051;SDS011;41919;42.648;23.384;2023-02-02T11:30:08;3.30;;;1.58;;
56051;SDS011;41919;42.648;23.384;2023-02-02T11:34:41;3.28;;;1.50;;
56051;SDS011;41919;42.648;23.384;2023-02-02T11:39:42;3.45;;;1.33;;
56051;SDS011;41919;42.648;23.384;2023-02-02T11:42:12;4.65;;;1.42;;
56051;SDS011;41919;42.648;23.384;2023-02-02T11:44:49;1.88;;;1.33;;
56051;SDS011;41919;42.648;23.384;2023-02-02T11:49:50;3.45;;;1.80;;
56051;SDS011;41919;42.648;23.384;2023-02-02T11:52:23;1.42;;;1.30;;
56051;SDS011;41919;42.648;23.384;2023-02-02T11:54:51;3.15;;;1.65;;
56051;SDS011;41919;42.648;23.384;2023-02-02T11:57:22;3.20;;;1.70;;
56051;SDS011;41919;42.648;23.384;2023-02-02T11:59:50;2.33;;;1.50;;
56051;SDS011;41919;42.648;23.384;2023-02-02T12:02:36;2.42;;;1.15;;
56051;SDS011;41919;42.648;23.384;2023-02-02T12:07:34;1.58;;;1.08;;
56051;SDS011;41919;42.648;23.384;2023-02-02T12:11:02;3.10;;;1.20;;
56051;SDS011;41919;42.648;23.384;2023-02-02T12:13:07;1.23;;;1.13;;
56051;SDS011;41919;42.648;23.384;2023-02-02T12:16:13;8.57;;;1.27;;
56051;SDS011;41919;42.648;23.384;2023-02-02T12:24:55;2.20;;;1.55;;
56051;SDS011;41919;42.648;23.384;2023-02-02T12:33:13;1.92;;;1.52;;
56051;SDS011;41919;42.648;23.384;2023-02-02T12:36:00;2.60;;;1.73;;
56051;SDS011;41919;42.648;23.384;2023-02-02T12:44:31;3.15;;;1.40;;
56051;SDS011;41919;42.648;23.384;2023-02-02T12:47:22;3.97;;;1.13;;
56051;SDS011;41919;42.648;23.384;2023-02-02T12:49:59;1.25;;;0.90;;
56051;SDS011;41919;42.648;23.384;2023-02-02T13:08:51;1.35;;;1.20;;
56051;SDS011;41919;42.648;23.384;2023-02-02T13:14:22;1.92;;;1.30;;
56051;SDS011;41919;42.648;23.384;2023-02-02T13:16:52;2.05;;;1.00;;
56051;SDS011;41919;42.648;23.384;2023-02-02T13:19:31;1.67;;;1.30;;
56051;SDS011;41919;42.648;23.384;2023-02-02T13:22:04;1.90;;;1.10;;
56051;SDS011;41919;42.648;23.384;2023-02-02T13:24:38;3.38;;;1.30;;
56051;SDS011;41919;42.648;23.384;2023-02-02T13:27:08;5.28;;;1.75;;
56051;SDS011;41919;42.648;23.384;2023-02-02T13:29:43;3.00;;;1.48;;
56051;SDS011;41919;42.648;23.384;2023-02-02T13:32:29;2.17;;;1.40;;
56051;SDS011;41919;42.648;23.384;2023-02-02T13:35:18;2.13;;;1.38;;
56051;SDS011;41919;42.648;23.384;2023-02-02T13:37:48;3.70;;;1.23;;
56051;SDS011;41919;42.648;23.384;2023-02-02T13:40:31;2.95;;;1.30;;
56051;SDS011;41919;42.648;23.384;2023-02-02T13:49:11;1.55;;;1.20;;
56051;SDS011;41919;42.648;23.384;2023-02-02T13:57:38;2.63;;;1.20;;
56051;SDS011;41919;42.648;23.384;2023-02-02T14:00:24;3.92;;;1.05;;
56051;SDS011;41919;42.648;23.384;2023-02-02T14:02:58;2.93;;;1.23;;
56051;SDS011;41919;42.648;23.384;2023-02-02T14:10:36;5.00;;;1.70;;
56051;SDS011;41919;42.648;23.384;2023-02-02T14:15:59;5.22;;;1.70;;
56051;SDS011;41919;42.648;23.384;2023-02-02T14:26:42;2.95;;;1.48;;
56051;SDS011;41919;42.648;23.384;2023-02-02T14:40:09;3.10;;;1.20;;
56051;SDS011;41919;42.648;23.384;2023-02-02T14:46:21;2.63;;;1.10;;
56051;SDS011;41919;42.648;23.384;2023-02-02T14:48:48;1.38;;;1.15;;
56051;SDS011;41919;42.648;23.384;2023-02-02T14:51:31;2.20;;;1.40;;
56051;SDS011;41919;42.648;23.384;2023-02-02T14:54:14;1.85;;;1.30;;
56051;SDS011;41919;42.648;23.384;2023-02-02T14:56:55;2.92;;;1.80;;
56051;SDS011;41919;42.648;23.384;2023-02-02T14:59:49;3.13;;;1.92;;
56051;SDS011;41919;42.648;23.384;2023-02-02T15:02:40;4.05;;;2.60;;
56051;SDS011;41919;42.648;23.384;2023-02-02T15:13:17;5.13;;;3.15;;
56051;SDS011;41919;42.648;23.384;2023-02-02T15:16:08;2.83;;;2.05;;
56051;SDS011;41919;42.648;23.384;2023-02-02T15:18:43;4.72;;;2.25;;
56051;SDS011;41919;42.648;23.384;2023-02-02T15:21:14;2.58;;;2.38;;
56051;SDS011;41919;42.648;23.384;2023-02-02T15:23:46;2.67;;;1.90;;
56051;SDS011;41919;42.648;23.384;2023-02-02T15:31:34;2.72;;;1.95;;
56051;SDS011;41919;42.648;23.384;2023-02-02T15:34:13;2.20;;;2.00;;
56051;SDS011;41919;42.648;23.384;2023-02-02T15:36:46;2.60;;;1.90;;
56051;SDS011;41919;42.648;23.384;2023-02-02T15:39:29;2.05;;;1.42;;
56051;SDS011;41919;42.648;23.384;2023-02-02T15:41:59;3.65;;;1.63;;
56051;SDS011;41919;42.648;23.384;2023-02-02T15:44:45;6.25;;;2.33;;
56051;SDS011;41919;42.648;23.384;2023-02-02T15:47:12;6.68;;;3.05;;
56051;SDS011;41919;42.648;23.384;2023-02-02T15:49:41;7.20;;;2.50;;
56051;SDS011;41919;42.648;23.384;2023-02-02T15:52:14;4.03;;;2.15;;
56051;SDS011;41919;42.648;23.384;2023-02-02T15:54:49;2.88;;;1.80;;
56051;SDS011;41919;42.648;23.384;2023-02-02T15:57:21;3.33;;;1.97;;
56051;SDS011;41919;42.648;23.384;2023-02-02T15:59:52;3.42;;;2.03;;
56051;SDS011;41919;42.648;23.384;2023-02-02T16:04:47;3.22;;;1.33;;
56051;SDS011;41919;42.648;23.384;2023-02-02T16:07:16;1.63;;;1.02;;
56051;SDS011;41919;42.648;23.384;2023-02-02T16:09:45;1.13;;;1.02;;
56051;SDS011;41919;42.648;23.384;2023-02-02T16:12:15;1.92;;;1.40;;
56051;SDS011;41919;42.648;23.384;2023-02-02T16:14:47;1.23;;;0.90;;
56051;SDS011;41919;42.648;23.384;2023-02-02T16:19:59;1.10;;;1.00;;
56051;SDS011;41919;42.648;23.384;2023-02-02T16:22:32;0.95;;;0.80;;
56051;SDS011;41919;42.648;23.384;2023-02-02T16:24:59;1.38;;;1.00;;
56051;SDS011;41919;42.648;23.384;2023-02-02T16:27:29;1.95;;;1.20;;
56051;SDS011;41919;42.648;23.384;2023-02-02T16:29:58;2.05;;;1.40;;
56051;SDS011;41919;42.648;23.384;2023-02-02T16:34:56;1.38;;;1.27;;
56051;SDS011;41919;42.648;23.384;2023-02-02T16:37:29;1.30;;;1.20;;
56051;SDS011;41919;42.648;23.384;2023-02-02T16:40:29;1.63;;;1.13;;
56051;SDS011;41919;42.648;23.384;2023-02-02T16:43:12;1.73;;;1.10;;
56051;SDS011;41919;42.648;23.384;2023-02-02T16:45:45;1.33;;;1.23;;
56051;SDS011;41919;42.648;23.384;2023-02-02T16:48:19;2.08;;;1.20;;
56051;SDS011;41919;42.648;23.384;2023-02-02T16:51:04;0.90;;;0.90;;
56051;SDS011;41919;42.648;23.384;2023-02-02T16:53:32;1.27;;;1.17;;
56051;SDS011;41919;42.648;23.384;2023-02-02T16:55:59;2.70;;;1.60;;
56051;SDS011;41919;42.648;23.384;2023-02-02T16:58:26;2.03;;;1.60;;
56051;SDS011;41919;42.648;23.384;2023-02-02T17:03:29;2.75;;;1.60;;
56051;SDS011;41919;42.648;23.384;2023-02-02T17:05:57;1.80;;;1.40;;
56051;SDS011;41919;42.648;23.384;2023-02-02T17:08:24;2.42;;;1.80;;
56051;SDS011;41919;42.648;23.384;2023-02-02T17:11:03;2.33;;;1.50;;
56051;SDS011;41919;42.648;23.384;2023-02-02T17:15:56;1.95;;;1.55;;
56051;SDS011;41919;42.648;23.384;2023-02-02T17:18:22;4.10;;;2.10;;
56051;SDS011;41919;42.648;23.384;2023-02-02T17:20:48;2.95;;;1.77;;
56051;SDS011;41919;42.648;23.384;2023-02-02T17:23:21;2.37;;;2.00;;
56051;SDS011;41919;42.648;23.384;2023-02-02T17:25:52;3.72;;;2.03;;
56051;SDS011;41919;42.648;23.384;2023-02-02T17:28:19;5.18;;;2.47;;
56051;SDS011;41919;42.648;23.384;2023-02-02T17:30:47;3.45;;;1.88;;
56051;SDS011;41919;42.648;23.384;2023-02-02T17:33:18;2.78;;;2.40;;
56051;SDS011;41919;42.648;23.384;2023-02-02T17:35:44;3.50;;;2.20;;
56051;SDS011;41919;42.648;23.384;2023-02-02T17:38:11;2.97;;;2.00;;
56051;SDS011;41919;42.648;23.384;2023-02-02T17:40:37;4.60;;;2.15;;
56051;SDS011;41919;42.648;23.384;2023-02-02T17:43:03;2.92;;;2.10;;
56051;SDS011;41919;42.648;23.384;2023-02-02T17:45:33;2.95;;;2.08;;
56051;SDS011;41919;42.648;23.384;2023-02-02T17:48:00;3.90;;;2.15;;